createdAt,value
2022-11-29T00:00:03.142Z,8.0
2022-11-29T00:01:00.341Z,8.0
2022-11-29T00:02:00.471Z,8.0
2022-11-29T00:03:00.457Z,8.0
2022-11-29T00:04:00.292Z,8.0
2022-11-29T00:05:00.339Z,8.0
2022-11-29T00:06:00.456Z,8.0
2022-11-29T00:07:00.300Z,8.0
2022-11-29T00:08:00.251Z,8.0
2022-11-29T00:09:00.282Z,8.0
2022-11-29T00:10:00.296Z,8.0
2022-11-29T00:11:00.310Z,8.0
2022-11-29T00:12:00.453Z,8.0
2022-11-29T00:13:00.314Z,8.0
2022-11-29T00:14:00.277Z,8.0
2022-11-29T00:15:00.278Z,8.0
2022-11-29T00:16:00.296Z,8.1
2022-11-29T00:17:00.379Z,8.0
2022-11-29T00:18:00.472Z,8.1
2022-11-29T00:19:00.298Z,8.1
2022-11-29T00:20:00.255Z,8.1
2022-11-29T00:21:00.358Z,8.0
2022-11-29T00:22:00.314Z,8.1
2022-11-29T00:23:00.275Z,8.1
2022-11-29T00:24:00.451Z,8.1
2022-11-29T00:25:00.247Z,8.1
2022-11-29T00:26:00.247Z,8.1
2022-11-29T00:27:00.282Z,8.1
2022-11-29T00:28:00.275Z,8.1
2022-11-29T00:29:00.405Z,8.0
2022-11-29T00:30:00.488Z,8.1
2022-11-29T00:31:00.372Z,8.1
2022-11-29T00:32:00.305Z,8.1
2022-11-29T00:33:00.301Z,8.0
2022-11-29T00:34:00.378Z,8.0
2022-11-29T00:35:03.987Z,8.0
2022-11-29T00:36:00.481Z,8.0
2022-11-29T00:37:00.458Z,8.0
2022-11-29T00:38:00.309Z,8.0
2022-11-29T00:39:00.304Z,8.0
2022-11-29T00:40:00.289Z,8.0
2022-11-29T00:41:00.250Z,8.0
2022-11-29T00:42:00.478Z,8.0
2022-11-29T00:43:00.294Z,7.9
2022-11-29T00:44:00.285Z,7.9
2022-11-29T00:45:00.484Z,7.9
2022-11-29T00:46:00.327Z,7.9
2022-11-29T00:47:00.291Z,7.9
2022-11-29T00:48:00.479Z,7.9
2022-11-29T00:49:00.311Z,7.9
2022-11-29T00:50:00.276Z,7.9
2022-11-29T00:51:00.352Z,7.9
2022-11-29T00:52:00.407Z,7.9
2022-11-29T00:53:00.377Z,7.9
2022-11-29T00:54:00.419Z,7.9
2022-11-29T00:55:00.272Z,7.9
2022-11-29T00:56:00.303Z,7.9
2022-11-29T00:57:00.304Z,7.9
2022-11-29T00:58:00.273Z,7.9
2022-11-29T00:59:00.252Z,7.9
2022-11-29T01:00:00.447Z,7.9
2022-11-29T01:01:00.371Z,7.8
2022-11-29T01:02:00.361Z,7.8
2022-11-29T01:03:00.286Z,7.8
2022-11-29T01:04:00.254Z,7.8
2022-11-29T01:05:00.286Z,7.8
2022-11-29T01:06:00.547Z,7.8
2022-11-29T01:07:00.490Z,7.8
2022-11-29T01:08:00.243Z,7.8
2022-11-29T01:09:00.286Z,7.8
2022-11-29T01:10:00.254Z,7.8
2022-11-29T01:11:00.282Z,7.8
2022-11-29T01:12:00.490Z,7.7
2022-11-29T01:13:00.305Z,7.7
2022-11-29T01:14:00.271Z,7.7
2022-11-29T01:15:00.282Z,7.7
2022-11-29T01:16:00.261Z,7.7
2022-11-29T01:17:00.350Z,7.7
2022-11-29T01:18:00.469Z,7.7
2022-11-29T01:19:00.258Z,7.7
2022-11-29T01:20:00.288Z,7.7
2022-11-29T01:21:00.285Z,7.7
2022-11-29T01:22:00.337Z,7.7
2022-11-29T01:23:00.280Z,7.7
2022-11-29T01:24:00.465Z,7.7
2022-11-29T01:25:00.313Z,7.7
2022-11-29T01:26:00.281Z,7.6
2022-11-29T01:27:00.246Z,7.6
2022-11-29T01:28:00.248Z,7.6
2022-11-29T01:29:00.275Z,7.6
2022-11-29T01:30:00.453Z,7.6
2022-11-29T01:31:00.341Z,7.6
2022-11-29T01:32:00.339Z,7.6
2022-11-29T01:33:00.394Z,7.6
2022-11-29T01:34:00.324Z,7.6
2022-11-29T01:35:00.290Z,7.6
2022-11-29T01:36:00.488Z,7.6
2022-11-29T01:37:00.342Z,7.6
2022-11-29T01:38:00.390Z,7.6
2022-11-29T01:39:00.280Z,7.6
2022-11-29T01:40:00.307Z,7.6
2022-11-29T01:41:00.248Z,7.5
2022-11-29T01:42:00.417Z,7.6
2022-11-29T01:43:00.310Z,7.5
2022-11-29T01:44:00.273Z,7.5
2022-11-29T01:45:00.306Z,7.5
2022-11-29T01:46:00.407Z,7.5
2022-11-29T01:47:00.274Z,7.5
2022-11-29T01:48:00.517Z,7.6
2022-11-29T01:49:00.332Z,7.6
2022-11-29T01:50:00.257Z,7.6
2022-11-29T01:51:00.322Z,7.6
2022-11-29T01:52:00.288Z,7.5
2022-11-29T01:53:00.402Z,7.5
2022-11-29T01:54:00.491Z,7.5
2022-11-29T01:55:00.304Z,7.5
2022-11-29T01:56:00.319Z,7.6
2022-11-29T01:57:00.298Z,7.6
2022-11-29T01:58:00.320Z,7.6
2022-11-29T01:59:00.323Z,7.6
2022-11-29T02:00:00.477Z,7.6
2022-11-29T02:01:00.309Z,7.5
2022-11-29T02:02:00.281Z,7.5
2022-11-29T02:03:00.291Z,7.5
2022-11-29T02:04:00.304Z,7.5
2022-11-29T02:05:00.277Z,7.5
2022-11-29T02:06:00.573Z,7.5
2022-11-29T02:07:00.298Z,7.5
2022-11-29T02:08:00.541Z,7.4
2022-11-29T02:09:00.273Z,7.4
2022-11-29T02:10:00.278Z,7.4
2022-11-29T02:11:00.244Z,7.3
2022-11-29T02:12:00.391Z,7.3
2022-11-29T02:13:00.254Z,7.2
2022-11-29T02:14:00.271Z,7.2
2022-11-29T02:15:00.278Z,7.2
2022-11-29T02:16:00.369Z,7.1
2022-11-29T02:17:00.280Z,7.1
2022-11-29T02:18:00.492Z,7.0
2022-11-29T02:19:00.280Z,7.0
2022-11-29T02:20:00.248Z,7.0
2022-11-29T02:21:00.281Z,7.0
2022-11-29T02:22:00.304Z,6.9
2022-11-29T02:23:00.405Z,6.9
2022-11-29T02:24:00.389Z,6.9
2022-11-29T02:25:00.353Z,6.9
2022-11-29T02:26:00.350Z,6.9
2022-11-29T02:27:00.308Z,6.9
2022-11-29T02:28:00.382Z,6.9
2022-11-29T02:29:00.255Z,6.9
2022-11-29T02:30:00.390Z,6.9
2022-11-29T02:31:00.357Z,6.9
2022-11-29T02:32:00.287Z,6.9
2022-11-29T02:33:00.305Z,6.9
2022-11-29T02:34:00.329Z,6.9
2022-11-29T02:35:00.353Z,6.9
2022-11-29T02:36:00.490Z,6.9
2022-11-29T02:37:00.307Z,6.9
2022-11-29T02:38:00.395Z,6.9
2022-11-29T02:39:00.370Z,6.9
2022-11-29T02:40:00.275Z,6.9
2022-11-29T02:41:00.253Z,6.9
2022-11-29T02:42:00.565Z,6.9
2022-11-29T02:43:00.303Z,6.9
2022-11-29T02:44:00.280Z,6.9
2022-11-29T02:45:00.270Z,6.9
2022-11-29T02:46:00.326Z,6.9
2022-11-29T02:47:00.248Z,7.0
2022-11-29T02:48:00.402Z,7.0
2022-11-29T02:49:00.273Z,7.0
2022-11-29T02:50:00.280Z,7.0
2022-11-29T02:51:00.275Z,7.0
2022-11-29T02:52:00.309Z,7.0
2022-11-29T02:53:00.281Z,7.0
2022-11-29T02:54:00.417Z,7.0
2022-11-29T02:55:00.307Z,7.0
2022-11-29T02:56:00.312Z,7.0
2022-11-29T02:57:00.251Z,7.0
2022-11-29T02:58:00.308Z,7.0
2022-11-29T02:59:00.273Z,7.0
2022-11-29T03:00:00.382Z,7.1
2022-11-29T03:01:00.277Z,7.1
2022-11-29T03:02:00.311Z,7.1
2022-11-29T03:03:00.322Z,7.1
2022-11-29T03:04:00.311Z,7.0
2022-11-29T03:05:00.331Z,7.0
2022-11-29T03:06:00.418Z,7.0
2022-11-29T03:07:00.389Z,7.0
2022-11-29T03:08:00.405Z,7.0
2022-11-29T03:09:00.510Z,7.0
2022-11-29T03:10:00.409Z,7.1
2022-11-29T03:11:00.254Z,7.1
2022-11-29T03:12:00.444Z,7.1
2022-11-29T03:13:00.364Z,7.1
2022-11-29T03:14:00.271Z,7.1
2022-11-29T03:15:00.312Z,7.1
2022-11-29T03:16:00.337Z,7.1
2022-11-29T03:17:00.284Z,7.2
2022-11-29T03:18:00.442Z,7.2
2022-11-29T03:19:00.286Z,7.2
2022-11-29T03:20:00.295Z,7.2
2022-11-29T03:21:00.279Z,7.2
2022-11-29T03:22:00.258Z,7.2
2022-11-29T03:23:00.274Z,7.3
2022-11-29T03:24:00.431Z,7.3
2022-11-29T03:25:00.424Z,7.3
2022-11-29T03:26:00.272Z,7.3
2022-11-29T03:27:00.247Z,7.3
2022-11-29T03:28:00.244Z,7.3
2022-11-29T03:29:00.302Z,7.3
2022-11-29T03:30:00.437Z,7.3
2022-11-29T03:31:00.297Z,7.3
2022-11-29T03:32:00.246Z,7.3
2022-11-29T03:33:00.277Z,7.3
2022-11-29T03:34:00.285Z,7.3
2022-11-29T03:35:00.271Z,7.3
2022-11-29T03:36:00.430Z,7.2
2022-11-29T03:37:00.328Z,7.2
2022-11-29T03:38:00.358Z,7.2
2022-11-29T03:39:00.297Z,7.2
2022-11-29T03:40:00.355Z,7.2
2022-11-29T03:41:00.492Z,7.2
2022-11-29T03:42:00.416Z,7.2
2022-11-29T03:43:00.277Z,7.1
2022-11-29T03:44:00.335Z,7.1
2022-11-29T03:45:00.324Z,7.1
2022-11-29T03:46:00.409Z,7.1
2022-11-29T03:47:00.467Z,7.0
2022-11-29T03:48:00.438Z,7.0
2022-11-29T03:49:00.304Z,7.0
2022-11-29T03:50:00.289Z,7.0
2022-11-29T03:51:00.558Z,7.0
2022-11-29T03:52:00.248Z,6.9
2022-11-29T03:53:00.387Z,6.9
2022-11-29T03:54:00.527Z,6.9
2022-11-29T03:55:00.275Z,6.9
2022-11-29T03:56:00.474Z,7.0
2022-11-29T03:57:00.295Z,7.0
2022-11-29T03:58:00.285Z,7.0
2022-11-29T03:59:00.277Z,7.0
2022-11-29T04:00:00.450Z,7.0
2022-11-29T04:01:00.311Z,7.1
2022-11-29T04:02:00.242Z,7.0
2022-11-29T04:03:00.320Z,7.0
2022-11-29T04:04:00.361Z,7.1
2022-11-29T04:05:00.278Z,7.1
2022-11-29T04:06:00.463Z,7.1
2022-11-29T04:07:00.353Z,7.1
2022-11-29T04:08:00.373Z,7.1
2022-11-29T04:09:00.274Z,7.1
2022-11-29T04:10:00.270Z,7.1
2022-11-29T04:11:00.244Z,7.1
2022-11-29T04:12:00.502Z,7.1
2022-11-29T04:13:00.303Z,7.2
2022-11-29T04:14:00.303Z,7.2
2022-11-29T04:15:00.279Z,7.2
2022-11-29T04:16:00.282Z,7.2
2022-11-29T04:17:00.275Z,7.2
2022-11-29T04:18:00.414Z,7.3
2022-11-29T04:19:00.279Z,7.5
2022-11-29T04:20:00.246Z,7.8
2022-11-29T04:21:00.345Z,8.1
2022-11-29T04:22:00.306Z,8.2
2022-11-29T04:23:00.328Z,8.3
2022-11-29T04:24:00.404Z,8.4
2022-11-29T04:25:00.350Z,8.5
2022-11-29T04:26:00.345Z,8.6
2022-11-29T04:27:00.571Z,8.7
2022-11-29T04:28:00.296Z,8.9
2022-11-29T04:29:00.320Z,9.0
2022-11-29T04:30:00.451Z,9.1
2022-11-29T04:31:00.313Z,9.1
2022-11-29T04:32:00.245Z,9.2
2022-11-29T04:33:00.275Z,9.3
2022-11-29T04:34:00.343Z,9.4
2022-11-29T04:35:00.358Z,9.3
2022-11-29T04:36:00.740Z,9.3
2022-11-29T04:37:00.415Z,9.3
2022-11-29T04:38:00.449Z,9.2
2022-11-29T04:39:00.378Z,9.0
2022-11-29T04:40:00.349Z,8.9
2022-11-29T04:41:00.284Z,8.9
2022-11-29T04:42:00.436Z,8.8
2022-11-29T04:43:00.427Z,8.7
2022-11-29T04:44:00.276Z,8.7
2022-11-29T04:45:00.281Z,8.7
2022-11-29T04:46:00.335Z,8.6
2022-11-29T04:47:00.845Z,8.6
2022-11-29T04:48:00.613Z,8.6
2022-11-29T04:49:00.355Z,8.6
2022-11-29T04:50:00.288Z,8.7
2022-11-29T04:51:00.251Z,8.7
2022-11-29T04:52:00.279Z,8.7
2022-11-29T04:53:00.305Z,8.7
2022-11-29T04:54:00.458Z,8.6
2022-11-29T04:55:00.372Z,8.7
2022-11-29T04:56:00.420Z,8.6
2022-11-29T04:57:00.506Z,8.6
2022-11-29T04:58:00.273Z,8.6
2022-11-29T04:59:00.312Z,8.7
2022-11-29T05:00:00.432Z,8.7
2022-11-29T05:01:00.258Z,8.8
2022-11-29T05:02:00.319Z,8.9
2022-11-29T05:03:00.335Z,8.9
2022-11-29T05:04:00.255Z,8.9
2022-11-29T05:05:00.288Z,8.9
2022-11-29T05:06:00.495Z,8.9
2022-11-29T05:07:00.306Z,9.0
2022-11-29T05:08:00.367Z,9.2
2022-11-29T05:09:00.374Z,9.3
2022-11-29T05:10:00.294Z,9.5
2022-11-29T05:11:00.326Z,9.7
2022-11-29T05:12:00.520Z,10.0
2022-11-29T05:13:00.396Z,10.2
2022-11-29T05:14:00.313Z,10.2
2022-11-29T05:15:00.280Z,10.2
2022-11-29T05:16:00.436Z,10.3
2022-11-29T05:17:00.339Z,10.3
2022-11-29T05:18:00.636Z,10.5
2022-11-29T05:19:00.277Z,11.3
2022-11-29T05:20:00.340Z,12.1
2022-11-29T05:21:00.367Z,12.0
2022-11-29T05:22:00.285Z,11.7
2022-11-29T05:23:00.282Z,11.6
2022-11-29T05:24:00.523Z,11.5
2022-11-29T05:25:00.329Z,11.5
2022-11-29T05:26:00.304Z,11.6
2022-11-29T05:27:00.316Z,11.8
2022-11-29T05:28:03.353Z,11.7
2022-11-29T05:29:00.300Z,11.5
2022-11-29T05:30:00.369Z,11.5
2022-11-29T05:31:00.315Z,11.6
2022-11-29T05:32:00.278Z,11.8
2022-11-29T05:33:00.275Z,12.5
2022-11-29T05:34:00.272Z,13.8
2022-11-29T05:35:00.255Z,13.8
2022-11-29T05:36:00.458Z,14.8
2022-11-29T05:37:00.269Z,16.0
2022-11-29T05:38:00.310Z,16.6
2022-11-29T05:39:00.288Z,16.4
2022-11-29T05:40:00.274Z,16.7
2022-11-29T05:41:00.277Z,17.2
2022-11-29T05:42:00.492Z,16.9
2022-11-29T05:43:00.483Z,16.9
2022-11-29T05:44:00.341Z,17.0
2022-11-29T05:45:00.275Z,17.5
2022-11-29T05:46:00.323Z,18.1
2022-11-29T05:47:00.276Z,18.6
2022-11-29T05:48:00.486Z,18.0
2022-11-29T05:49:00.297Z,17.9
2022-11-29T05:50:00.296Z,18.1
2022-11-29T05:51:00.376Z,17.7
2022-11-29T05:52:00.247Z,18.3
2022-11-29T05:53:00.308Z,17.9
2022-11-29T05:54:00.596Z,18.4
2022-11-29T05:55:00.369Z,17.7
2022-11-29T05:56:00.299Z,17.6
2022-11-29T05:57:00.312Z,18.4
2022-11-29T05:58:00.418Z,18.7
2022-11-29T05:59:00.499Z,17.5
2022-11-29T06:00:00.462Z,16.7
2022-11-29T06:01:00.278Z,16.4
2022-11-29T06:02:00.367Z,16.4
2022-11-29T06:03:00.369Z,16.7
2022-11-29T06:04:00.310Z,18.2
2022-11-29T06:05:00.351Z,18.0
2022-11-29T06:06:00.541Z,17.1
2022-11-29T06:07:00.271Z,16.4
2022-11-29T06:08:00.335Z,15.8
2022-11-29T06:09:00.283Z,15.3
2022-11-29T06:10:01.804Z,15.4
2022-11-29T06:11:00.312Z,15.4
2022-11-29T06:12:00.457Z,15.1
2022-11-29T06:13:00.310Z,14.9
2022-11-29T06:14:00.249Z,14.9
2022-11-29T06:15:00.579Z,15.0
2022-11-29T06:16:00.301Z,15.0
2022-11-29T06:17:00.252Z,15.1
2022-11-29T06:18:00.410Z,15.1
2022-11-29T06:19:00.283Z,15.1
2022-11-29T06:20:00.280Z,14.9
2022-11-29T06:21:00.303Z,14.8
2022-11-29T06:22:00.280Z,14.5
2022-11-29T06:23:00.273Z,14.1
2022-11-29T06:24:00.462Z,13.8
2022-11-29T06:25:00.278Z,13.7
2022-11-29T06:26:03.848Z,13.7
2022-11-29T06:27:00.301Z,13.5
2022-11-29T06:28:00.306Z,13.4
2022-11-29T06:29:00.248Z,13.3
2022-11-29T06:30:00.460Z,13.1
2022-11-29T06:31:00.343Z,12.8
2022-11-29T06:32:00.249Z,12.7
2022-11-29T06:33:00.259Z,12.6
2022-11-29T06:34:00.291Z,12.7
2022-11-29T06:35:00.404Z,13.0
2022-11-29T06:36:00.522Z,13.2
2022-11-29T06:37:00.246Z,13.4
2022-11-29T06:38:00.323Z,13.4
2022-11-29T06:39:00.275Z,13.4
2022-11-29T06:40:00.278Z,13.3
2022-11-29T06:41:02.180Z,13.0
2022-11-29T06:42:00.471Z,12.8
2022-11-29T06:43:00.288Z,12.7
2022-11-29T06:44:00.364Z,12.7
2022-11-29T06:45:00.375Z,12.7
2022-11-29T06:46:00.449Z,12.6
2022-11-29T06:47:00.434Z,12.5
2022-11-29T06:48:00.471Z,12.4
2022-11-29T06:49:02.260Z,12.3
2022-11-29T06:50:00.312Z,12.1
2022-11-29T06:51:00.334Z,11.8
2022-11-29T06:52:00.276Z,11.6
2022-11-29T06:53:00.258Z,11.5
2022-11-29T06:54:00.503Z,11.5
2022-11-29T06:55:00.283Z,11.4
2022-11-29T06:56:00.289Z,11.3
2022-11-29T06:57:00.308Z,11.2
2022-11-29T06:58:00.251Z,11.3
2022-11-29T06:59:00.327Z,11.3
2022-11-29T07:00:00.510Z,11.3
2022-11-29T07:01:00.509Z,11.3
2022-11-29T07:02:00.287Z,11.3
2022-11-29T07:03:00.250Z,11.3
2022-11-29T07:04:00.272Z,11.3
2022-11-29T07:05:00.320Z,11.5
2022-11-29T07:06:00.446Z,11.6
2022-11-29T07:07:00.310Z,11.8
2022-11-29T07:08:00.446Z,12.0
2022-11-29T07:09:00.283Z,12.3
2022-11-29T07:10:00.286Z,12.6
2022-11-29T07:11:00.347Z,12.9
2022-11-29T07:12:00.439Z,13.0
2022-11-29T07:13:00.293Z,13.1
2022-11-29T07:14:00.279Z,13.2
2022-11-29T07:15:00.304Z,13.3
2022-11-29T07:16:00.497Z,13.3
2022-11-29T07:17:00.397Z,13.3
2022-11-29T07:18:00.519Z,13.1
2022-11-29T07:19:00.348Z,13.0
2022-11-29T07:20:00.290Z,13.0
2022-11-29T07:21:00.305Z,13.0
2022-11-29T07:22:00.320Z,13.1
2022-11-29T07:23:00.381Z,13.2
2022-11-29T07:24:00.474Z,13.3
2022-11-29T07:25:00.342Z,13.5
2022-11-29T07:26:00.349Z,13.6
2022-11-29T07:27:00.338Z,13.5
2022-11-29T07:28:00.321Z,13.6
2022-11-29T07:29:00.365Z,13.7
2022-11-29T07:30:00.573Z,14.0
2022-11-29T07:31:00.275Z,14.1
2022-11-29T07:32:00.622Z,14.1
2022-11-29T07:33:00.813Z,14.1
2022-11-29T07:34:00.288Z,14.3
2022-11-29T07:35:00.306Z,14.5
2022-11-29T07:36:00.582Z,14.8
2022-11-29T07:37:00.277Z,15.0
2022-11-29T07:38:00.330Z,15.2
2022-11-29T07:39:00.508Z,15.3
2022-11-29T07:40:00.331Z,15.3
2022-11-29T07:41:00.337Z,15.3
2022-11-29T07:42:00.452Z,15.4
2022-11-29T07:43:00.279Z,15.5
2022-11-29T07:44:00.300Z,15.7
2022-11-29T07:45:00.289Z,15.9
2022-11-29T07:46:00.320Z,15.8
2022-11-29T07:47:00.339Z,15.8
2022-11-29T07:48:00.689Z,15.8
2022-11-29T07:49:00.340Z,15.7
2022-11-29T07:50:00.309Z,15.8
2022-11-29T07:51:00.354Z,15.8
2022-11-29T07:52:00.621Z,15.8
2022-11-29T07:53:00.311Z,16.1
2022-11-29T07:54:01.046Z,16.3
2022-11-29T07:55:00.286Z,16.3
2022-11-29T07:56:00.312Z,16.1
2022-11-29T07:57:00.599Z,15.9
2022-11-29T07:58:00.310Z,15.6
2022-11-29T07:59:00.558Z,15.4
2022-11-29T08:00:00.455Z,15.2
2022-11-29T08:01:00.476Z,15.0
2022-11-29T08:02:00.422Z,15.0
2022-11-29T08:03:00.469Z,15.0
2022-11-29T08:04:00.389Z,14.8
2022-11-29T08:05:00.319Z,14.6
2022-11-29T08:06:00.569Z,14.3
2022-11-29T08:07:00.353Z,14.1
2022-11-29T08:08:00.352Z,13.8
2022-11-29T08:09:00.268Z,13.5
2022-11-29T08:10:00.314Z,13.4
2022-11-29T08:11:00.289Z,13.4
2022-11-29T08:12:00.415Z,13.3
2022-11-29T08:13:00.283Z,13.1
2022-11-29T08:14:00.281Z,13.0
2022-11-29T08:15:00.280Z,13.0
2022-11-29T08:16:00.342Z,13.0
2022-11-29T08:17:00.309Z,13.0
2022-11-29T08:18:00.475Z,13.0
2022-11-29T08:19:00.428Z,13.1
2022-11-29T08:20:04.130Z,13.1
2022-11-29T08:21:00.277Z,13.1
2022-11-29T08:22:00.288Z,13.2
2022-11-29T08:23:00.328Z,13.2
2022-11-29T08:24:00.597Z,13.3
2022-11-29T08:25:00.308Z,13.5
2022-11-29T08:26:00.295Z,13.7
2022-11-29T08:27:00.325Z,14.0
2022-11-29T08:28:00.279Z,14.1
2022-11-29T08:29:00.281Z,14.1
2022-11-29T08:30:00.505Z,14.3
2022-11-29T08:31:00.315Z,14.5
2022-11-29T08:32:00.406Z,14.7
2022-11-29T08:33:00.298Z,15.3
2022-11-29T08:34:00.434Z,16.5
2022-11-29T08:35:00.319Z,17.8
2022-11-29T08:36:00.557Z,18.7
2022-11-29T08:37:00.284Z,19.2
2022-11-29T08:38:00.316Z,19.9
2022-11-29T08:39:06.103Z,19.8
2022-11-29T08:40:00.288Z,20.1
2022-11-29T08:41:00.328Z,20.3
2022-11-29T08:42:00.434Z,20.3
2022-11-29T08:43:00.288Z,20.2
2022-11-29T08:44:00.346Z,20.5
2022-11-29T08:45:00.393Z,20.7
2022-11-29T08:46:00.386Z,20.4
2022-11-29T08:47:00.341Z,19.9
2022-11-29T08:48:00.696Z,20.2
2022-11-29T08:49:00.490Z,19.8
2022-11-29T08:50:00.393Z,19.6
2022-11-29T08:51:00.285Z,20.0
2022-11-29T08:52:00.356Z,20.4
2022-11-29T08:53:00.260Z,21.8
2022-11-29T08:54:00.430Z,22.7
2022-11-29T08:55:03.005Z,20.9
2022-11-29T08:56:00.322Z,19.5
2022-11-29T08:57:37.334Z,18.7
2022-11-29T08:58:00.246Z,18.4
2022-11-29T08:59:00.249Z,17.9
2022-11-29T09:00:00.541Z,17.6
2022-11-29T09:01:00.363Z,17.2
2022-11-29T09:02:00.405Z,17.0
2022-11-29T09:03:00.310Z,16.9
2022-11-29T09:04:00.480Z,16.9
2022-11-29T09:05:00.319Z,17.1
2022-11-29T09:06:00.493Z,17.0
2022-11-29T09:07:00.249Z,17.1
2022-11-29T09:08:00.459Z,17.0
2022-11-29T09:09:00.279Z,17.2
2022-11-29T09:10:00.311Z,18.2
2022-11-29T09:11:00.282Z,19.9
2022-11-29T09:12:00.424Z,20.5
2022-11-29T09:13:00.357Z,20.5
2022-11-29T09:14:00.350Z,20.6
2022-11-29T09:15:00.332Z,21.5
2022-11-29T09:16:00.322Z,21.9
2022-11-29T09:17:00.334Z,22.3
2022-11-29T09:18:00.474Z,22.2
2022-11-29T09:19:00.421Z,22.4
2022-11-29T09:20:00.247Z,22.0
2022-11-29T09:21:00.348Z,21.8
2022-11-29T09:22:00.295Z,21.0
2022-11-29T09:23:00.332Z,21.8
2022-11-29T09:24:00.541Z,23.4
2022-11-29T09:25:00.254Z,24.5
2022-11-29T09:26:00.248Z,25.3
2022-11-29T09:27:00.281Z,25.3
2022-11-29T09:28:00.256Z,25.4
2022-11-29T09:29:00.288Z,25.6
2022-11-29T09:30:00.457Z,24.5
2022-11-29T09:31:00.280Z,23.7
2022-11-29T09:32:00.333Z,24.0
2022-11-29T09:33:00.327Z,24.9
2022-11-29T09:34:00.440Z,25.3
2022-11-29T09:35:00.304Z,25.9
2022-11-29T09:36:00.578Z,25.7
2022-11-29T09:37:00.442Z,25.0
2022-11-29T09:38:00.305Z,25.0
2022-11-29T09:39:00.287Z,25.1
2022-11-29T09:40:00.371Z,25.3
2022-11-29T09:41:00.523Z,25.5
2022-11-29T09:42:00.443Z,25.7
2022-11-29T09:43:00.347Z,25.7
2022-11-29T09:44:00.336Z,25.0
2022-11-29T09:45:00.435Z,25.1
2022-11-29T09:46:00.325Z,25.5
2022-11-29T09:47:00.369Z,25.4
2022-11-29T09:48:00.541Z,24.5
2022-11-29T09:49:00.532Z,24.0
2022-11-29T09:50:00.362Z,23.6
2022-11-29T09:51:00.367Z,24.3
2022-11-29T09:52:00.278Z,23.9
2022-11-29T09:53:00.362Z,22.5
2022-11-29T09:54:00.578Z,21.5
2022-11-29T09:55:00.328Z,20.7
2022-11-29T09:56:00.347Z,20.1
2022-11-29T09:57:00.329Z,19.4
2022-11-29T09:58:00.307Z,18.8
2022-11-29T09:59:00.281Z,18.4
2022-11-29T10:00:00.494Z,18.2
2022-11-29T10:01:00.358Z,18.5
2022-11-29T10:02:00.423Z,19.0
2022-11-29T10:03:00.368Z,19.0
2022-11-29T10:04:00.422Z,19.3
2022-11-29T10:05:00.280Z,18.8
2022-11-29T10:06:00.503Z,18.4
2022-11-29T10:07:00.277Z,18.1
2022-11-29T10:08:00.382Z,18.2
2022-11-29T10:09:00.304Z,17.7
2022-11-29T10:10:00.310Z,17.1
2022-11-29T10:11:00.265Z,16.8
2022-11-29T10:12:00.433Z,16.5
2022-11-29T10:13:00.274Z,16.4
2022-11-29T10:14:00.272Z,16.1
2022-11-29T10:15:00.705Z,16.0
2022-11-29T10:16:00.596Z,15.8
2022-11-29T10:17:00.363Z,15.6
2022-11-29T10:18:01.009Z,15.2
2022-11-29T10:19:00.494Z,14.9
2022-11-29T10:20:00.316Z,14.9
2022-11-29T10:21:00.308Z,14.9
2022-11-29T10:22:00.274Z,15.1
2022-11-29T10:23:00.251Z,15.1
2022-11-29T10:24:00.437Z,15.6
2022-11-29T10:25:00.249Z,16.2
2022-11-29T10:26:00.285Z,16.6
2022-11-29T10:27:00.273Z,17.1
2022-11-29T10:28:00.286Z,17.4
2022-11-29T10:29:00.375Z,18.0
2022-11-29T10:30:00.539Z,17.5
2022-11-29T10:31:00.317Z,17.2
2022-11-29T10:32:00.328Z,17.3
2022-11-29T10:33:00.299Z,17.2
2022-11-29T10:34:00.486Z,17.0
2022-11-29T10:35:00.362Z,17.1
2022-11-29T10:36:00.483Z,17.2
2022-11-29T10:37:00.288Z,17.4
2022-11-29T10:38:30.860Z,17.5
2022-11-29T10:39:00.278Z,16.9
2022-11-29T10:40:00.252Z,16.5
2022-11-29T10:41:00.247Z,16.2
2022-11-29T10:42:00.669Z,15.7
2022-11-29T10:43:00.307Z,15.3
2022-11-29T10:44:00.253Z,15.2
2022-11-29T10:45:00.311Z,14.8
2022-11-29T10:46:00.382Z,14.6
2022-11-29T10:47:00.284Z,14.5
2022-11-29T10:48:00.446Z,14.4
2022-11-29T10:49:00.502Z,14.3
2022-11-29T10:50:00.274Z,14.3
2022-11-29T10:51:00.285Z,14.1
2022-11-29T10:52:00.287Z,14.0
2022-11-29T10:53:00.360Z,13.8
2022-11-29T10:54:00.402Z,13.7
2022-11-29T10:55:00.306Z,13.5
2022-11-29T10:56:00.274Z,13.4
2022-11-29T10:57:00.283Z,13.4
2022-11-29T10:58:00.271Z,13.4
2022-11-29T10:59:00.249Z,13.4
2022-11-29T11:00:00.459Z,13.5
2022-11-29T11:01:00.425Z,13.7
2022-11-29T11:02:00.297Z,13.9
2022-11-29T11:03:00.342Z,14.1
2022-11-29T11:04:00.425Z,14.3
2022-11-29T11:05:00.357Z,14.6
2022-11-29T11:06:00.471Z,14.4
2022-11-29T11:07:00.304Z,14.3
2022-11-29T11:08:00.372Z,14.5
2022-11-29T11:09:00.354Z,14.9
2022-11-29T11:10:00.328Z,15.0
2022-11-29T11:11:02.059Z,15.6
2022-11-29T11:12:00.486Z,15.3
2022-11-29T11:13:00.251Z,15.3
2022-11-29T11:14:00.304Z,15.1
2022-11-29T11:15:00.314Z,14.9
2022-11-29T11:16:00.282Z,14.7
2022-11-29T11:17:00.356Z,14.6
2022-11-29T11:18:00.639Z,14.4
2022-11-29T11:19:00.379Z,14.2
2022-11-29T11:20:00.447Z,14.1
2022-11-29T11:21:00.308Z,14.0
2022-11-29T11:22:00.249Z,14.0
2022-11-29T11:23:00.290Z,13.9
2022-11-29T11:24:00.402Z,13.8
2022-11-29T11:25:00.250Z,13.8
2022-11-29T11:26:00.261Z,13.7
2022-11-29T11:27:00.281Z,13.6
2022-11-29T11:28:00.279Z,13.6
2022-11-29T11:29:00.337Z,13.6
2022-11-29T11:30:00.431Z,13.6
2022-11-29T11:31:00.408Z,13.6
2022-11-29T11:32:00.307Z,13.5
2022-11-29T11:33:00.275Z,13.5
2022-11-29T11:34:00.277Z,13.4
2022-11-29T11:35:00.399Z,13.3
2022-11-29T11:36:00.454Z,13.2
2022-11-29T11:37:00.311Z,13.1
2022-11-29T11:38:00.312Z,13.1
2022-11-29T11:39:00.340Z,13.1
2022-11-29T11:40:00.457Z,13.0
2022-11-29T11:41:00.311Z,13.0
2022-11-29T11:42:00.519Z,13.0
2022-11-29T11:43:00.766Z,13.0
2022-11-29T11:44:00.797Z,12.9
2022-11-29T11:45:00.732Z,12.9
2022-11-29T11:46:00.404Z,12.9
2022-11-29T11:47:00.320Z,12.9
2022-11-29T11:48:00.395Z,12.8
2022-11-29T11:49:00.305Z,12.8
2022-11-29T11:50:00.515Z,12.7
2022-11-29T11:51:00.286Z,12.6
2022-11-29T11:52:00.273Z,12.5
2022-11-29T11:53:00.271Z,12.5
2022-11-29T11:54:00.521Z,12.4
2022-11-29T11:55:00.336Z,12.3
2022-11-29T11:56:00.279Z,12.3
2022-11-29T11:57:00.369Z,12.2
2022-11-29T11:58:06.062Z,12.1
2022-11-29T11:59:00.331Z,12.1
2022-11-29T12:00:06.318Z,12.1
2022-11-29T12:01:04.976Z,12.1
2022-11-29T12:02:00.467Z,12.1
2022-11-29T12:03:00.687Z,12.1
2022-11-29T12:04:00.545Z,12.0
2022-11-29T12:05:00.881Z,12.0
2022-11-29T12:06:00.898Z,12.0
2022-11-29T12:07:00.639Z,12.1
2022-11-29T12:08:07.879Z,12.1
2022-11-29T12:09:00.559Z,12.1
2022-11-29T12:10:00.630Z,12.1
2022-11-29T12:11:06.909Z,12.1
2022-11-29T12:12:00.858Z,12.1
2022-11-29T12:13:00.447Z,12.2
2022-11-29T12:14:00.531Z,12.1
2022-11-29T12:15:00.751Z,12.2
2022-11-29T12:16:00.701Z,12.2
2022-11-29T12:17:00.656Z,12.3
2022-11-29T12:18:01.109Z,12.3
2022-11-29T12:19:00.618Z,12.3
2022-11-29T12:20:00.594Z,12.2
2022-11-29T12:21:00.571Z,12.3
2022-11-29T12:22:00.590Z,12.3
2022-11-29T12:23:00.517Z,12.2
2022-11-29T12:24:00.994Z,12.1
2022-11-29T12:25:00.502Z,12.1
2022-11-29T12:26:00.563Z,12.0
2022-11-29T12:27:00.598Z,11.9
2022-11-29T12:28:00.769Z,11.9
2022-11-29T12:29:00.445Z,11.8
2022-11-29T12:30:00.858Z,11.7
2022-11-29T12:31:00.865Z,11.7
2022-11-29T12:32:00.291Z,11.6
2022-11-29T12:33:00.248Z,11.6
2022-11-29T12:34:00.297Z,11.5
2022-11-29T12:35:00.482Z,11.4
2022-11-29T12:36:00.503Z,11.4
2022-11-29T12:37:00.276Z,11.3
2022-11-29T12:38:00.510Z,11.2
2022-11-29T12:39:00.410Z,11.2
2022-11-29T12:40:00.367Z,11.1
2022-11-29T12:41:00.529Z,11.0
2022-11-29T12:42:00.534Z,11.0
2022-11-29T12:43:00.395Z,10.9
2022-11-29T12:44:00.367Z,10.9
2022-11-29T12:45:00.479Z,10.9
2022-11-29T12:46:00.704Z,10.8
2022-11-29T12:47:28.220Z,10.8
2022-11-29T12:48:00.498Z,10.7
2022-11-29T12:49:00.321Z,10.7
2022-11-29T12:50:00.282Z,10.7
2022-11-29T12:51:00.463Z,10.6
2022-11-29T12:52:00.307Z,10.6
2022-11-29T12:53:00.261Z,10.6
2022-11-29T12:54:00.492Z,10.6
2022-11-29T12:55:00.396Z,10.6
2022-11-29T12:56:00.406Z,10.6
2022-11-29T12:57:00.318Z,10.6
2022-11-29T12:58:00.315Z,10.6
2022-11-29T12:59:00.367Z,10.6
2022-11-29T13:00:00.575Z,10.6
2022-11-29T13:01:00.497Z,10.5
2022-11-29T13:02:00.361Z,10.5
2022-11-29T13:03:00.486Z,10.5
2022-11-29T13:04:00.358Z,10.4
2022-11-29T13:05:00.414Z,10.4
2022-11-29T13:06:00.454Z,10.3
2022-11-29T13:07:00.466Z,10.2
2022-11-29T13:08:00.411Z,10.2
2022-11-29T13:09:00.309Z,10.1
2022-11-29T13:10:00.360Z,10.1
2022-11-29T13:11:00.375Z,10.0
2022-11-29T13:12:00.559Z,10.0
2022-11-29T13:13:00.344Z,10.0
2022-11-29T13:14:20.216Z,10.0
2022-11-29T13:15:00.854Z,9.9
2022-11-29T13:16:00.370Z,9.8
2022-11-29T13:17:00.313Z,9.7
2022-11-29T13:18:00.483Z,9.7
2022-11-29T13:19:00.279Z,9.6
2022-11-29T13:20:00.354Z,9.6
2022-11-29T13:21:00.321Z,9.6
2022-11-29T13:22:00.402Z,9.5
2022-11-29T13:23:00.253Z,9.4
2022-11-29T13:24:08.502Z,9.4
2022-11-29T13:25:00.347Z,9.3
2022-11-29T13:26:00.374Z,9.3
2022-11-29T13:27:00.290Z,9.2
2022-11-29T13:28:00.304Z,9.1
2022-11-29T13:29:00.343Z,9.1